Alpine Meadows, California
Current Conditions -  °F | °C
As of 12:45 PM on Thursday 18 Dec 2014 (Local Time) from KTRK Reporting Station
Scattered Clouds Scattered Clouds  
Wind Chill:   Ceiling: Unl
Heat Index:   Visibility: 10mi
Dew Point: -1°   Wind: 6mph
Humidity: 65%   Direction: 310°NW
Pressure: 30.13"   Gusts: NA
Location:  39.16°N, 120.24°W
Report Text: KTRK 182045Z 31005KT 10SM SCT029 05/M01 A3013 RMK NOSPECI
Loading
Personal Weather Stations






























Interactive Weather Map New forecast layout! Learn more

10-Day Weather Forecast

Advertisements
Track Severe Weather on mobile